sensor_id;sensor_type;location;lat;lon;timestamp;P1;durP1;ratioP1;P2;durP2;ratioP2
793;SDS011;380;48.738;9.214;2022-08-07T00:00:17;3.22;;;1.08;;
793;SDS011;380;48.738;9.214;2022-08-07T00:02:49;2.83;;;1.05;;
793;SDS011;380;48.738;9.214;2022-08-07T00:05:29;1.45;;;0.70;;
793;SDS011;380;48.738;9.214;2022-08-07T00:08:09;1.85;;;0.77;;
793;SDS011;380;48.738;9.214;2022-08-07T00:10:55;1.40;;;0.63;;
793;SDS011;380;48.738;9.214;2022-08-07T00:13:23;1.80;;;0.87;;
793;SDS011;380;48.738;9.214;2022-08-07T00:22:21;1.42;;;0.98;;
793;SDS011;380;48.738;9.214;2022-08-07T00:25:09;1.80;;;0.70;;
793;SDS011;380;48.738;9.214;2022-08-07T00:27:43;2.72;;;1.17;;
793;SDS011;380;48.738;9.214;2022-08-07T00:30:13;1.92;;;0.98;;
793;SDS011;380;48.738;9.214;2022-08-07T00:32:57;2.05;;;1.05;;
793;SDS011;380;48.738;9.214;2022-08-07T00:38:26;3.33;;;0.82;;
793;SDS011;380;48.738;9.214;2022-08-07T00:41:02;1.00;;;0.50;;
793;SDS011;380;48.738;9.214;2022-08-07T00:43:43;1.98;;;0.80;;
793;SDS011;380;48.738;9.214;2022-08-07T00:46:25;2.22;;;0.65;;
793;SDS011;380;48.738;9.214;2022-08-07T00:51:42;1.63;;;0.80;;
793;SDS011;380;48.738;9.214;2022-08-07T00:54:34;1.25;;;0.60;;
793;SDS011;380;48.738;9.214;2022-08-07T00:57:06;2.80;;;0.80;;
793;SDS011;380;48.738;9.214;2022-08-07T00:59:40;3.25;;;1.13;;
793;SDS011;380;48.738;9.214;2022-08-07T01:05:09;2.15;;;0.77;;
793;SDS011;380;48.738;9.214;2022-08-07T01:07:36;2.50;;;1.37;;
793;SDS011;380;48.738;9.214;2022-08-07T01:13:04;2.22;;;1.25;;
793;SDS011;380;48.738;9.214;2022-08-07T01:15:39;1.55;;;0.90;;
793;SDS011;380;48.738;9.214;2022-08-07T01:18:19;1.63;;;0.75;;
793;SDS011;380;48.738;9.214;2022-08-07T01:23:57;1.83;;;1.15;;
793;SDS011;380;48.738;9.214;2022-08-07T01:26:35;3.17;;;0.95;;
793;SDS011;380;48.738;9.214;2022-08-07T01:29:22;1.27;;;0.70;;
793;SDS011;380;48.738;9.214;2022-08-07T01:31:58;2.97;;;0.52;;
793;SDS011;380;48.738;9.214;2022-08-07T01:34:36;2.30;;;1.17;;
793;SDS011;380;48.738;9.214;2022-08-07T01:37:06;1.65;;;0.75;;
793;SDS011;380;48.738;9.214;2022-08-07T01:39:59;1.65;;;0.90;;
793;SDS011;380;48.738;9.214;2022-08-07T01:42:49;1.65;;;0.70;;
793;SDS011;380;48.738;9.214;2022-08-07T01:48:30;1.50;;;0.95;;
793;SDS011;380;48.738;9.214;2022-08-07T01:51:04;1.65;;;1.08;;
793;SDS011;380;48.738;9.214;2022-08-07T01:53:53;2.20;;;1.10;;
793;SDS011;380;48.738;9.214;2022-08-07T01:59:35;1.73;;;1.05;;
793;SDS011;380;48.738;9.214;2022-08-07T02:02:34;1.33;;;0.73;;
793;SDS011;380;48.738;9.214;2022-08-07T02:05:32;2.80;;;1.30;;
793;SDS011;380;48.738;9.214;2022-08-07T02:10:51;1.60;;;0.70;;
793;SDS011;380;48.738;9.214;2022-08-07T02:13:41;2.65;;;1.20;;
793;SDS011;380;48.738;9.214;2022-08-07T02:16:17;1.98;;;0.98;;
793;SDS011;380;48.738;9.214;2022-08-07T02:18:57;1.77;;;1.30;;
793;SDS011;380;48.738;9.214;2022-08-07T02:24:35;1.15;;;0.70;;
793;SDS011;380;48.738;9.214;2022-08-07T02:27:19;4.95;;;1.40;;
793;SDS011;380;48.738;9.214;2022-08-07T02:30:02;2.60;;;1.20;;
793;SDS011;380;48.738;9.214;2022-08-07T02:35:32;2.05;;;0.65;;
793;SDS011;380;48.738;9.214;2022-08-07T02:38:11;2.22;;;0.90;;
793;SDS011;380;48.738;9.214;2022-08-07T02:41:11;2.20;;;1.00;;
793;SDS011;380;48.738;9.214;2022-08-07T02:43:59;1.65;;;0.98;;
793;SDS011;380;48.738;9.214;2022-08-07T02:47:05;1.73;;;1.00;;
793;SDS011;380;48.738;9.214;2022-08-07T02:49:35;2.40;;;1.13;;
793;SDS011;380;48.738;9.214;2022-08-07T03:00:48;1.88;;;0.95;;
793;SDS011;380;48.738;9.214;2022-08-07T03:06:02;2.05;;;0.85;;
793;SDS011;380;48.738;9.214;2022-08-07T03:08:56;1.50;;;0.93;;
793;SDS011;380;48.738;9.214;2022-08-07T03:11:23;3.17;;;1.13;;
793;SDS011;380;48.738;9.214;2022-08-07T03:14:04;1.90;;;0.90;;
793;SDS011;380;48.738;9.214;2022-08-07T03:16:43;2.03;;;1.35;;
793;SDS011;380;48.738;9.214;2022-08-07T03:19:16;2.50;;;1.23;;
793;SDS011;380;48.738;9.214;2022-08-07T03:24:44;3.47;;;1.33;;
793;SDS011;380;48.738;9.214;2022-08-07T03:27:20;1.55;;;0.90;;
793;SDS011;380;48.738;9.214;2022-08-07T03:29:55;2.70;;;1.40;;
793;SDS011;380;48.738;9.214;2022-08-07T03:32:44;2.00;;;1.48;;
793;SDS011;380;48.738;9.214;2022-08-07T03:41:01;1.65;;;0.90;;
793;SDS011;380;48.738;9.214;2022-08-07T03:43:27;3.13;;;1.77;;
793;SDS011;380;48.738;9.214;2022-08-07T03:46:01;6.53;;;1.50;;
793;SDS011;380;48.738;9.214;2022-08-07T03:49:03;2.00;;;1.25;;
793;SDS011;380;48.738;9.214;2022-08-07T03:51:32;1.90;;;1.10;;
793;SDS011;380;48.738;9.214;2022-08-07T03:56:48;2.00;;;0.93;;
793;SDS011;380;48.738;9.214;2022-08-07T03:59:15;2.13;;;1.40;;
793;SDS011;380;48.738;9.214;2022-08-07T04:01:43;2.05;;;1.45;;
793;SDS011;380;48.738;9.214;2022-08-07T04:04:18;2.97;;;1.38;;
793;SDS011;380;48.738;9.214;2022-08-07T04:06:48;1.80;;;1.08;;
793;SDS011;380;48.738;9.214;2022-08-07T04:09:38;2.22;;;1.20;;
793;SDS011;380;48.738;9.214;2022-08-07T04:12:07;2.58;;;1.70;;
793;SDS011;380;48.738;9.214;2022-08-07T04:14:47;2.17;;;1.30;;
793;SDS011;380;48.738;9.214;2022-08-07T04:20:27;2.10;;;1.27;;
793;SDS011;380;48.738;9.214;2022-08-07T04:23:03;3.83;;;1.60;;
793;SDS011;380;48.738;9.214;2022-08-07T04:25:35;2.05;;;1.30;;
793;SDS011;380;48.738;9.214;2022-08-07T04:31:10;2.88;;;1.27;;
793;SDS011;380;48.738;9.214;2022-08-07T04:36:28;2.45;;;1.40;;
793;SDS011;380;48.738;9.214;2022-08-07T04:39:09;2.17;;;1.17;;
793;SDS011;380;48.738;9.214;2022-08-07T04:42:02;1.30;;;0.88;;
793;SDS011;380;48.738;9.214;2022-08-07T04:44:42;2.03;;;1.50;;
793;SDS011;380;48.738;9.214;2022-08-07T04:56:24;2.55;;;1.15;;
793;SDS011;380;48.738;9.214;2022-08-07T05:16:52;2.60;;;1.75;;
793;SDS011;380;48.738;9.214;2022-08-07T05:19:31;4.57;;;2.22;;
793;SDS011;380;48.738;9.214;2022-08-07T05:22:28;2.42;;;1.95;;
793;SDS011;380;48.738;9.214;2022-08-07T05:24:55;3.85;;;2.15;;
793;SDS011;380;48.738;9.214;2022-08-07T05:30:31;2.97;;;2.10;;
793;SDS011;380;48.738;9.214;2022-08-07T05:33:10;3.38;;;2.70;;
793;SDS011;380;48.738;9.214;2022-08-07T05:38:39;3.03;;;2.00;;
793;SDS011;380;48.738;9.214;2022-08-07T05:41:09;3.35;;;2.25;;
793;SDS011;380;48.738;9.214;2022-08-07T05:43:40;3.00;;;2.05;;
793;SDS011;380;48.738;9.214;2022-08-07T05:46:09;3.50;;;2.78;;
793;SDS011;380;48.738;9.214;2022-08-07T05:54:31;3.13;;;2.28;;
793;SDS011;380;48.738;9.214;2022-08-07T05:57:05;3.05;;;2.08;;
793;SDS011;380;48.738;9.214;2022-08-07T05:59:53;3.40;;;2.67;;
793;SDS011;380;48.738;9.214;2022-08-07T06:02:35;3.90;;;2.60;;
793;SDS011;380;48.738;9.214;2022-08-07T06:05:20;4.63;;;3.45;;
793;SDS011;380;48.738;9.214;2022-08-07T06:10:51;3.70;;;3.00;;
793;SDS011;380;48.738;9.214;2022-08-07T06:13:18;5.55;;;3.30;;
793;SDS011;380;48.738;9.214;2022-08-07T06:15:53;2.85;;;2.22;;
793;SDS011;380;48.738;9.214;2022-08-07T06:18:46;4.40;;;3.80;;
793;SDS011;380;48.738;9.214;2022-08-07T06:21:15;3.65;;;2.97;;
793;SDS011;380;48.738;9.214;2022-08-07T06:24:14;4.75;;;3.42;;
793;SDS011;380;48.738;9.214;2022-08-07T06:29:59;4.28;;;2.75;;
793;SDS011;380;48.738;9.214;2022-08-07T06:32:46;4.10;;;3.05;;
793;SDS011;380;48.738;9.214;2022-08-07T06:35:18;3.40;;;2.92;;
793;SDS011;380;48.738;9.214;2022-08-07T06:37:56;3.58;;;2.80;;
793;SDS011;380;48.738;9.214;2022-08-07T06:40:38;6.15;;;3.33;;
793;SDS011;380;48.738;9.214;2022-08-07T06:43:15;7.28;;;3.03;;
793;SDS011;380;48.738;9.214;2022-08-07T06:46:00;3.80;;;3.20;;
793;SDS011;380;48.738;9.214;2022-08-07T06:51:40;3.28;;;2.75;;
793;SDS011;380;48.738;9.214;2022-08-07T06:54:38;5.68;;;2.83;;
793;SDS011;380;48.738;9.214;2022-08-07T07:00:00;3.78;;;3.03;;
793;SDS011;380;48.738;9.214;2022-08-07T07:05:28;2.83;;;2.08;;
793;SDS011;380;48.738;9.214;2022-08-07T07:13:58;3.50;;;2.25;;
793;SDS011;380;48.738;9.214;2022-08-07T07:16:51;2.78;;;1.73;;
793;SDS011;380;48.738;9.214;2022-08-07T07:19:33;2.53;;;2.10;;
793;SDS011;380;48.738;9.214;2022-08-07T07:22:15;2.42;;;1.55;;
793;SDS011;380;48.738;9.214;2022-08-07T07:24:53;2.55;;;2.00;;
793;SDS011;380;48.738;9.214;2022-08-07T07:33:41;3.00;;;1.73;;
793;SDS011;380;48.738;9.214;2022-08-07T07:36:20;2.10;;;1.52;;
793;SDS011;380;48.738;9.214;2022-08-07T07:39:00;2.05;;;1.40;;
793;SDS011;380;48.738;9.214;2022-08-07T07:41:33;2.63;;;1.60;;
793;SDS011;380;48.738;9.214;2022-08-07T07:44:05;1.92;;;1.05;;
793;SDS011;380;48.738;9.214;2022-08-07T07:46:50;1.80;;;1.17;;
793;SDS011;380;48.738;9.214;2022-08-07T07:52:31;1.92;;;0.85;;
793;SDS011;380;48.738;9.214;2022-08-07T07:55:12;2.25;;;1.13;;
793;SDS011;380;48.738;9.214;2022-08-07T07:57:47;1.70;;;1.10;;
793;SDS011;380;48.738;9.214;2022-08-07T08:00:27;1.45;;;0.88;;
793;SDS011;380;48.738;9.214;2022-08-07T08:03:00;3.17;;;1.40;;
793;SDS011;380;48.738;9.214;2022-08-07T08:05:34;2.15;;;1.33;;
793;SDS011;380;48.738;9.214;2022-08-07T08:08:10;1.83;;;1.20;;
793;SDS011;380;48.738;9.214;2022-08-07T08:16:38;1.92;;;1.30;;
793;SDS011;380;48.738;9.214;2022-08-07T08:19:26;1.70;;;1.00;;
793;SDS011;380;48.738;9.214;2022-08-07T08:25:25;2.05;;;1.00;;
793;SDS011;380;48.738;9.214;2022-08-07T08:28:16;3.53;;;1.13;;
793;SDS011;380;48.738;9.214;2022-08-07T08:30:58;1.60;;;0.90;;
793;SDS011;380;48.738;9.214;2022-08-07T08:33:57;2.45;;;1.25;;
793;SDS011;380;48.738;9.214;2022-08-07T08:36:30;1.85;;;0.98;;
793;SDS011;380;48.738;9.214;2022-08-07T08:39:13;2.08;;;1.00;;
793;SDS011;380;48.738;9.214;2022-08-07T08:42:06;2.97;;;1.33;;
793;SDS011;380;48.738;9.214;2022-08-07T08:47:31;1.88;;;1.10;;
793;SDS011;380;48.738;9.214;2022-08-07T08:52:31;1.88;;;1.00;;
793;SDS011;380;48.738;9.214;2022-08-07T09:00:41;1.58;;;1.08;;
793;SDS011;380;48.738;9.214;2022-08-07T09:03:30;3.92;;;1.35;;
793;SDS011;380;48.738;9.214;2022-08-07T09:08:55;1.60;;;0.88;;
793;SDS011;380;48.738;9.214;2022-08-07T09:14:35;1.77;;;1.02;;
793;SDS011;380;48.738;9.214;2022-08-07T09:23:12;1.90;;;0.90;;
793;SDS011;380;48.738;9.214;2022-08-07T09:26:06;2.15;;;0.80;;
793;SDS011;380;48.738;9.214;2022-08-07T09:34:31;1.45;;;0.73;;
793;SDS011;380;48.738;9.214;2022-08-07T09:37:06;1.83;;;0.85;;
793;SDS011;380;48.738;9.214;2022-08-07T09:50:58;1.13;;;0.70;;
793;SDS011;380;48.738;9.214;2022-08-07T09:53:43;2.20;;;0.70;;
793;SDS011;380;48.738;9.214;2022-08-07T10:12:39;5.93;;;1.05;;
793;SDS011;380;48.738;9.214;2022-08-07T10:42:35;2.08;;;0.68;;
793;SDS011;380;48.738;9.214;2022-08-07T10:50:25;1.10;;;0.50;;
793;SDS011;380;48.738;9.214;2022-08-07T10:53:08;1.75;;;0.75;;
793;SDS011;380;48.738;9.214;2022-08-07T10:55:46;1.70;;;0.73;;
793;SDS011;380;48.738;9.214;2022-08-07T11:03:48;1.35;;;0.70;;
793;SDS011;380;48.738;9.214;2022-08-07T11:09:38;1.50;;;0.60;;
793;SDS011;380;48.738;9.214;2022-08-07T11:12:12;1.60;;;0.70;;
793;SDS011;380;48.738;9.214;2022-08-07T11:15:42;1.92;;;0.75;;
793;SDS011;380;48.738;9.214;2022-08-07T11:23:06;1.17;;;0.63;;
793;SDS011;380;48.738;9.214;2022-08-07T11:31:22;3.47;;;0.73;;
793;SDS011;380;48.738;9.214;2022-08-07T11:36:53;1.13;;;0.57;;
793;SDS011;380;48.738;9.214;2022-08-07T11:45:19;1.98;;;0.88;;
793;SDS011;380;48.738;9.214;2022-08-07T11:55:32;1.35;;;0.60;;
793;SDS011;380;48.738;9.214;2022-08-07T11:58:08;2.05;;;0.70;;
793;SDS011;380;48.738;9.214;2022-08-07T12:08:36;1.02;;;0.40;;
793;SDS011;380;48.738;9.214;2022-08-07T12:11:10;1.73;;;0.77;;
793;SDS011;380;48.738;9.214;2022-08-07T12:16:29;3.92;;;0.70;;
793;SDS011;380;48.738;9.214;2022-08-07T12:27:43;1.67;;;0.50;;
793;SDS011;380;48.738;9.214;2022-08-07T12:30:14;1.52;;;0.70;;
793;SDS011;380;48.738;9.214;2022-08-07T12:32:44;0.75;;;0.40;;
793;SDS011;380;48.738;9.214;2022-08-07T12:35:18;1.33;;;0.70;;
793;SDS011;380;48.738;9.214;2022-08-07T12:37:45;1.52;;;0.60;;
793;SDS011;380;48.738;9.214;2022-08-07T12:40:18;1.20;;;0.50;;
793;SDS011;380;48.738;9.214;2022-08-07T12:42:50;1.85;;;0.68;;
793;SDS011;380;48.738;9.214;2022-08-07T12:45:20;1.60;;;0.82;;
793;SDS011;380;48.738;9.214;2022-08-07T12:47:59;1.35;;;0.50;;
793;SDS011;380;48.738;9.214;2022-08-07T12:50:34;1.50;;;0.60;;
793;SDS011;380;48.738;9.214;2022-08-07T12:53:11;0.85;;;0.52;;
793;SDS011;380;48.738;9.214;2022-08-07T12:58:23;2.42;;;0.98;;
793;SDS011;380;48.738;9.214;2022-08-07T13:06:48;1.27;;;0.68;;
793;SDS011;380;48.738;9.214;2022-08-07T13:12:06;1.27;;;0.60;;
793;SDS011;380;48.738;9.214;2022-08-07T13:14:45;1.50;;;0.80;;
793;SDS011;380;48.738;9.214;2022-08-07T13:19:59;1.15;;;0.52;;
793;SDS011;380;48.738;9.214;2022-08-07T13:22:33;1.65;;;0.88;;
793;SDS011;380;48.738;9.214;2022-08-07T13:25:29;1.77;;;0.97;;
793;SDS011;380;48.738;9.214;2022-08-07T13:28:14;2.00;;;0.80;;
793;SDS011;380;48.738;9.214;2022-08-07T13:30:46;1.95;;;0.70;;
793;SDS011;380;48.738;9.214;2022-08-07T13:33:35;1.20;;;0.60;;
793;SDS011;380;48.738;9.214;2022-08-07T13:36:13;1.58;;;0.90;;
793;SDS011;380;48.738;9.214;2022-08-07T13:41:47;1.50;;;0.85;;
793;SDS011;380;48.738;9.214;2022-08-07T13:44:21;1.45;;;0.77;;
793;SDS011;380;48.738;9.214;2022-08-07T13:46:51;1.02;;;0.55;;
793;SDS011;380;48.738;9.214;2022-08-07T13:49:27;0.95;;;0.60;;
793;SDS011;380;48.738;9.214;2022-08-07T13:52:00;2.05;;;1.00;;
793;SDS011;380;48.738;9.214;2022-08-07T13:56:55;1.40;;;0.75;;
793;SDS011;380;48.738;9.214;2022-08-07T13:59:25;1.73;;;0.80;;
793;SDS011;380;48.738;9.214;2022-08-07T14:02:18;1.80;;;0.77;;
793;SDS011;380;48.738;9.214;2022-08-07T14:04:47;0.75;;;0.40;;
793;SDS011;380;48.738;9.214;2022-08-07T14:07:15;1.00;;;0.50;;
793;SDS011;380;48.738;9.214;2022-08-07T14:10:11;1.20;;;0.70;;
793;SDS011;380;48.738;9.214;2022-08-07T14:18:06;1.83;;;0.93;;
793;SDS011;380;48.738;9.214;2022-08-07T14:20:35;1.88;;;0.80;;
793;SDS011;380;48.738;9.214;2022-08-07T14:23:04;1.38;;;0.80;;
793;SDS011;380;48.738;9.214;2022-08-07T14:25:36;1.95;;;0.65;;
793;SDS011;380;48.738;9.214;2022-08-07T14:30:29;1.63;;;0.80;;
793;SDS011;380;48.738;9.214;2022-08-07T14:32:57;2.08;;;0.90;;
793;SDS011;380;48.738;9.214;2022-08-07T14:35:27;1.10;;;0.73;;
793;SDS011;380;48.738;9.214;2022-08-07T14:37:54;1.70;;;0.70;;
793;SDS011;380;48.738;9.214;2022-08-07T14:40:33;1.75;;;1.00;;
793;SDS011;380;48.738;9.214;2022-08-07T14:43:01;1.30;;;0.70;;
793;SDS011;380;48.738;9.214;2022-08-07T14:45:32;1.40;;;0.70;;
793;SDS011;380;48.738;9.214;2022-08-07T14:48:08;1.60;;;0.70;;
793;SDS011;380;48.738;9.214;2022-08-07T14:50:44;1.15;;;0.57;;
793;SDS011;380;48.738;9.214;2022-08-07T14:53:15;1.83;;;0.77;;
793;SDS011;380;48.738;9.214;2022-08-07T14:55:41;1.95;;;0.95;;
793;SDS011;380;48.738;9.214;2022-08-07T14:58:08;1.75;;;0.80;;
793;SDS011;380;48.738;9.214;2022-08-07T15:00:41;1.15;;;0.60;;
793;SDS011;380;48.738;9.214;2022-08-07T15:03:11;1.48;;;0.80;;
793;SDS011;380;48.738;9.214;2022-08-07T15:05:38;2.47;;;0.68;;
793;SDS011;380;48.738;9.214;2022-08-07T15:08:05;1.75;;;0.65;;
793;SDS011;380;48.738;9.214;2022-08-07T15:10:38;1.20;;;0.60;;
793;SDS011;380;48.738;9.214;2022-08-07T15:13:23;1.70;;;0.80;;
793;SDS011;380;48.738;9.214;2022-08-07T15:15:50;1.55;;;0.90;;
793;SDS011;380;48.738;9.214;2022-08-07T15:18:21;1.42;;;0.73;;
793;SDS011;380;48.738;9.214;2022-08-07T15:20:57;0.95;;;0.47;;
793;SDS011;380;48.738;9.214;2022-08-07T15:23:27;1.55;;;0.88;;
793;SDS011;380;48.738;9.214;2022-08-07T15:25:58;1.80;;;0.80;;
793;SDS011;380;48.738;9.214;2022-08-07T15:28:30;1.38;;;0.60;;
793;SDS011;380;48.738;9.214;2022-08-07T15:31:00;1.27;;;0.50;;
793;SDS011;380;48.738;9.214;2022-08-07T15:33:31;1.52;;;0.88;;
793;SDS011;380;48.738;9.214;2022-08-07T15:35:58;1.52;;;0.77;;
793;SDS011;380;48.738;9.214;2022-08-07T15:38:35;2.60;;;1.00;;
793;SDS011;380;48.738;9.214;2022-08-07T15:41:09;1.48;;;0.68;;
793;SDS011;380;48.738;9.214;2022-08-07T15:43:44;2.35;;;0.80;;
793;SDS011;380;48.738;9.214;2022-08-07T15:46:24;1.60;;;0.70;;
793;SDS011;380;48.738;9.214;2022-08-07T15:48:52;1.35;;;0.85;;
793;SDS011;380;48.738;9.214;2022-08-07T15:51:19;1.80;;;0.88;;
793;SDS011;380;48.738;9.214;2022-08-07T15:56:35;1.60;;;0.63;;
793;SDS011;380;48.738;9.214;2022-08-07T15:59:03;2.05;;;0.93;;
793;SDS011;380;48.738;9.214;2022-08-07T16:01:51;1.70;;;0.90;;
793;SDS011;380;48.738;9.214;2022-08-07T16:04:27;1.90;;;1.08;;
793;SDS011;380;48.738;9.214;2022-08-07T16:06:56;1.73;;;0.80;;
793;SDS011;380;48.738;9.214;2022-08-07T16:09:31;1.33;;;0.60;;
793;SDS011;380;48.738;9.214;2022-08-07T16:17:15;1.20;;;0.63;;
793;SDS011;380;48.738;9.214;2022-08-07T16:27:47;1.73;;;0.80;;
793;SDS011;380;48.738;9.214;2022-08-07T16:30:21;2.92;;;0.60;;
793;SDS011;380;48.738;9.214;2022-08-07T16:32:53;1.58;;;0.80;;
793;SDS011;380;48.738;9.214;2022-08-07T16:53:43;1.50;;;0.77;;
793;SDS011;380;48.738;9.214;2022-08-07T16:56:19;1.38;;;0.80;;
793;SDS011;380;48.738;9.214;2022-08-07T16:59:06;1.45;;;0.77;;
793;SDS011;380;48.738;9.214;2022-08-07T17:01:55;1.60;;;0.88;;
793;SDS011;380;48.738;9.214;2022-08-07T17:04:35;1.52;;;0.77;;
793;SDS011;380;48.738;9.214;2022-08-07T17:09:46;11.30;;;1.13;;
793;SDS011;380;48.738;9.214;2022-08-07T17:12:19;1.63;;;0.90;;
793;SDS011;380;48.738;9.214;2022-08-07T17:17:27;1.77;;;0.80;;
793;SDS011;380;48.738;9.214;2022-08-07T17:19:59;3.60;;;0.70;;
793;SDS011;380;48.738;9.214;2022-08-07T17:22:37;1.33;;;0.68;;
793;SDS011;380;48.738;9.214;2022-08-07T17:30:13;1.55;;;0.70;;
793;SDS011;380;48.738;9.214;2022-08-07T17:32:49;1.63;;;0.77;;
793;SDS011;380;48.738;9.214;2022-08-07T17:35:20;1.27;;;0.68;;
793;SDS011;380;48.738;9.214;2022-08-07T17:40:25;1.42;;;0.73;;
793;SDS011;380;48.738;9.214;2022-08-07T17:43:06;1.45;;;0.50;;
793;SDS011;380;48.738;9.214;2022-08-07T17:45:56;1.55;;;0.75;;
793;SDS011;380;48.738;9.214;2022-08-07T17:48:38;1.25;;;0.60;;
793;SDS011;380;48.738;9.214;2022-08-07T17:53:54;1.70;;;0.52;;
793;SDS011;380;48.738;9.214;2022-08-07T17:56:29;1.15;;;0.73;;
793;SDS011;380;48.738;9.214;2022-08-07T17:59:06;1.35;;;0.80;;
793;SDS011;380;48.738;9.214;2022-08-07T18:01:36;1.65;;;0.88;;
793;SDS011;380;48.738;9.214;2022-08-07T18:04:24;3.60;;;0.80;;
793;SDS011;380;48.738;9.214;2022-08-07T18:07:11;1.33;;;0.70;;
793;SDS011;380;48.738;9.214;2022-08-07T18:09:40;1.60;;;0.57;;
793;SDS011;380;48.738;9.214;2022-08-07T18:12:13;1.88;;;1.00;;
793;SDS011;380;48.738;9.214;2022-08-07T18:17:46;1.75;;;0.93;;
793;SDS011;380;48.738;9.214;2022-08-07T18:20:17;1.58;;;0.80;;
793;SDS011;380;48.738;9.214;2022-08-07T18:22:53;2.92;;;0.75;;
793;SDS011;380;48.738;9.214;2022-08-07T18:25:27;1.75;;;1.10;;
793;SDS011;380;48.738;9.214;2022-08-07T18:30:33;1.25;;;0.80;;
793;SDS011;380;48.738;9.214;2022-08-07T18:39:04;1.63;;;0.70;;
793;SDS011;380;48.738;9.214;2022-08-07T18:43:44;1.52;;;0.65;;
793;SDS011;380;48.738;9.214;2022-08-07T19:02:02;1.50;;;0.73;;
793;SDS011;380;48.738;9.214;2022-08-07T19:04:55;2.35;;;0.90;;
793;SDS011;380;48.738;9.214;2022-08-07T19:07:27;1.73;;;1.02;;
793;SDS011;380;48.738;9.214;2022-08-07T19:18:27;1.45;;;0.70;;
793;SDS011;380;48.738;9.214;2022-08-07T19:26:40;1.45;;;0.80;;
793;SDS011;380;48.738;9.214;2022-08-07T19:29:07;2.50;;;0.68;;
793;SDS011;380;48.738;9.214;2022-08-07T19:31:37;1.85;;;0.80;;
793;SDS011;380;48.738;9.214;2022-08-07T19:34:18;1.50;;;0.75;;
793;SDS011;380;48.738;9.214;2022-08-07T19:36:51;3.05;;;1.27;;
793;SDS011;380;48.738;9.214;2022-08-07T19:39:24;2.50;;;0.90;;
793;SDS011;380;48.738;9.214;2022-08-07T19:41:59;1.55;;;0.70;;
793;SDS011;380;48.738;9.214;2022-08-07T19:44:35;1.23;;;0.43;;
793;SDS011;380;48.738;9.214;2022-08-07T19:47:08;1.95;;;0.90;;
793;SDS011;380;48.738;9.214;2022-08-07T19:49:48;1.05;;;0.52;;
793;SDS011;380;48.738;9.214;2022-08-07T19:52:25;1.85;;;0.70;;
793;SDS011;380;48.738;9.214;2022-08-07T19:54:58;1.80;;;0.90;;
793;SDS011;380;48.738;9.214;2022-08-07T20:00:09;1.20;;;0.60;;
793;SDS011;380;48.738;9.214;2022-08-07T20:03:00;2.00;;;0.90;;
793;SDS011;380;48.738;9.214;2022-08-07T20:05:33;1.10;;;0.52;;
793;SDS011;380;48.738;9.214;2022-08-07T20:08:16;3.25;;;1.13;;
793;SDS011;380;48.738;9.214;2022-08-07T20:10:53;2.50;;;0.93;;
793;SDS011;380;48.738;9.214;2022-08-07T20:13:42;1.83;;;0.80;;
793;SDS011;380;48.738;9.214;2022-08-07T20:16:21;1.27;;;0.55;;
793;SDS011;380;48.738;9.214;2022-08-07T20:18:50;1.20;;;0.70;;
793;SDS011;380;48.738;9.214;2022-08-07T20:21:21;2.15;;;1.00;;
793;SDS011;380;48.738;9.214;2022-08-07T20:23:59;1.67;;;0.88;;
793;SDS011;380;48.738;9.214;2022-08-07T20:26:32;1.25;;;0.70;;
793;SDS011;380;48.738;9.214;2022-08-07T20:28:59;1.63;;;0.98;;
793;SDS011;380;48.738;9.214;2022-08-07T20:31:27;1.65;;;0.60;;
793;SDS011;380;48.738;9.214;2022-08-07T20:33:57;2.03;;;0.80;;
793;SDS011;380;48.738;9.214;2022-08-07T20:36:26;1.10;;;0.52;;
793;SDS011;380;48.738;9.214;2022-08-07T20:38:55;1.15;;;0.57;;
793;SDS011;380;48.738;9.214;2022-08-07T20:41:25;1.23;;;0.70;;
793;SDS011;380;48.738;9.214;2022-08-07T20:43:58;1.58;;;0.73;;
793;SDS011;380;48.738;9.214;2022-08-07T20:46:30;1.30;;;0.55;;
793;SDS011;380;48.738;9.214;2022-08-07T20:48:58;1.67;;;0.77;;
793;SDS011;380;48.738;9.214;2022-08-07T20:51:28;1.63;;;0.90;;
793;SDS011;380;48.738;9.214;2022-08-07T20:53:54;1.63;;;0.88;;
793;SDS011;380;48.738;9.214;2022-08-07T20:56:29;2.13;;;0.80;;
793;SDS011;380;48.738;9.214;2022-08-07T20:59:00;1.10;;;0.60;;
793;SDS011;380;48.738;9.214;2022-08-07T21:01:30;1.88;;;1.00;;
793;SDS011;380;48.738;9.214;2022-08-07T21:03:58;2.40;;;0.45;;
793;SDS011;380;48.738;9.214;2022-08-07T21:06:30;1.30;;;0.60;;
793;SDS011;380;48.738;9.214;2022-08-07T21:09:08;1.02;;;0.60;;
793;SDS011;380;48.738;9.214;2022-08-07T21:11:46;1.70;;;0.80;;
793;SDS011;380;48.738;9.214;2022-08-07T21:14:26;1.13;;;0.65;;
793;SDS011;380;48.738;9.214;2022-08-07T21:16:57;1.58;;;0.73;;
793;SDS011;380;48.738;9.214;2022-08-07T21:19:27;0.90;;;0.40;;
793;SDS011;380;48.738;9.214;2022-08-07T21:21:57;1.83;;;0.80;;
793;SDS011;380;48.738;9.214;2022-08-07T21:27:32;1.48;;;0.98;;
793;SDS011;380;48.738;9.214;2022-08-07T21:30:18;1.60;;;0.70;;
793;SDS011;380;48.738;9.214;2022-08-07T21:32:54;1.48;;;0.60;;
793;SDS011;380;48.738;9.214;2022-08-07T21:35:29;2.28;;;1.17;;
793;SDS011;380;48.738;9.214;2022-08-07T21:43:24;1.52;;;0.75;;
793;SDS011;380;48.738;9.214;2022-08-07T21:45:57;0.90;;;0.40;;
793;SDS011;380;48.738;9.214;2022-08-07T21:51:13;1.30;;;0.65;;
793;SDS011;380;48.738;9.214;2022-08-07T21:53:51;1.67;;;0.90;;
793;SDS011;380;48.738;9.214;2022-08-07T21:56:28;1.10;;;0.50;;
793;SDS011;380;48.738;9.214;2022-08-07T21:59:03;1.95;;;0.77;;
793;SDS011;380;48.738;9.214;2022-08-07T22:04:21;1.30;;;0.60;;
793;SDS011;380;48.738;9.214;2022-08-07T22:06:55;1.95;;;0.60;;
793;SDS011;380;48.738;9.214;2022-08-07T22:09:33;1.58;;;0.70;;
793;SDS011;380;48.738;9.214;2022-08-07T22:17:27;1.20;;;0.50;;
793;SDS011;380;48.738;9.214;2022-08-07T22:20:03;1.70;;;0.57;;
793;SDS011;380;48.738;9.214;2022-08-07T22:22:44;1.55;;;0.88;;
793;SDS011;380;48.738;9.214;2022-08-07T22:25:18;1.48;;;0.57;;
793;SDS011;380;48.738;9.214;2022-08-07T22:28:18;1.23;;;0.68;;
793;SDS011;380;48.738;9.214;2022-08-07T22:33:39;1.85;;;0.80;;
793;SDS011;380;48.738;9.214;2022-08-07T22:39:17;1.42;;;0.70;;
793;SDS011;380;48.738;9.214;2022-08-07T22:41:51;1.52;;;0.73;;
793;SDS011;380;48.738;9.214;2022-08-07T22:44:23;1.42;;;0.60;;
793;SDS011;380;48.738;9.214;2022-08-07T23:22:03;1.10;;;0.63;;
793;SDS011;380;48.738;9.214;2022-08-07T23:30:32;1.30;;;0.68;;
793;SDS011;380;48.738;9.214;2022-08-07T23:35:41;1.15;;;0.45;;
793;SDS011;380;48.738;9.214;2022-08-07T23:41:04;2.25;;;0.77;;
793;SDS011;380;48.738;9.214;2022-08-07T23:55:24;2.67;;;1.05;;
793;SDS011;380;48.738;9.214;2022-08-07T23:58:05;1.98;;;1.13;;
